createdAt,value
2017-03-03T00:00:18.018Z,994.42
2017-03-03T00:01:17.791Z,994.42
2017-03-03T00:02:17.820Z,994.45
2017-03-03T00:03:17.848Z,994.43
2017-03-03T00:04:17.873Z,994.43
2017-03-03T00:05:18.153Z,994.46
2017-03-03T00:06:17.930Z,994.39
2017-03-03T00:07:17.954Z,994.42
2017-03-03T00:08:17.983Z,994.39
2017-03-03T00:09:18.009Z,994.33
2017-03-03T00:10:18.289Z,994.26
2017-03-03T00:11:18.062Z,994.18
2017-03-03T00:12:18.086Z,994.12
2017-03-03T00:13:18.115Z,994.1
2017-03-03T00:14:18.145Z,994.05
2017-03-03T00:15:18.424Z,994.11
2017-03-03T00:16:18.202Z,994.11
2017-03-03T00:17:18.226Z,994.08
2017-03-03T00:18:18.256Z,994.07
2017-03-03T00:19:18.283Z,994.1
2017-03-03T00:20:18.309Z,994.13
2017-03-03T00:21:18.338Z,994.18
2017-03-03T00:22:18.363Z,994.25
2017-03-03T00:23:18.391Z,994.24
2017-03-03T00:24:18.419Z,994.28
2017-03-03T00:25:18.440Z,994.28
2017-03-03T00:26:18.473Z,994.3
2017-03-03T00:27:18.497Z,994.34
2017-03-03T00:28:18.521Z,994.27
2017-03-03T00:29:18.555Z,994.31
2017-03-03T00:30:18.580Z,994.29
2017-03-03T00:31:18.609Z,994.22
2017-03-03T00:32:18.634Z,994.2
2017-03-03T00:33:18.662Z,994.14
2017-03-03T00:34:18.688Z,994.18
2017-03-03T00:35:18.710Z,994.17
2017-03-03T00:36:18.749Z,994.18
2017-03-03T00:37:18.766Z,994.23
2017-03-03T00:38:18.799Z,994.19
2017-03-03T00:39:18.828Z,994.19
2017-03-03T00:40:18.847Z,994.19
2017-03-03T00:41:18.880Z,994.19
2017-03-03T00:42:18.901Z,994.17
2017-03-03T00:43:18.934Z,994.11
2017-03-03T00:44:18.962Z,994.11
2017-03-03T00:45:18.988Z,994.09
2017-03-03T00:46:19.015Z,994.14
2017-03-03T00:47:19.040Z,994.18
2017-03-03T00:48:19.070Z,994.2
2017-03-03T00:49:19.098Z,994.25
2017-03-03T00:50:19.128Z,994.21
2017-03-03T00:51:19.152Z,994.19
2017-03-03T00:52:19.177Z,994.2
2017-03-03T00:53:19.206Z,994.11
2017-03-03T00:54:19.232Z,994.14
2017-03-03T00:55:19.259Z,994.11
2017-03-03T00:56:19.291Z,994.13
2017-03-03T00:57:19.308Z,994.06
2017-03-03T00:58:19.341Z,994.01
2017-03-03T00:59:19.366Z,994.07
2017-03-03T01:00:19.394Z,994.05
2017-03-03T01:01:19.415Z,994.09
2017-03-03T01:02:19.448Z,994.08
2017-03-03T01:03:19.472Z,994.03
2017-03-03T01:04:19.501Z,993.99
2017-03-03T01:05:19.530Z,993.95
2017-03-03T01:06:19.555Z,993.94
2017-03-03T01:07:19.584Z,993.91
2017-03-03T01:08:19.608Z,993.94
2017-03-03T01:09:19.637Z,993.96
2017-03-03T01:10:19.662Z,993.97
2017-03-03T01:11:19.691Z,993.99
2017-03-03T01:12:19.721Z,993.92
2017-03-03T01:13:19.744Z,993.91
2017-03-03T01:14:19.773Z,993.93
2017-03-03T01:15:19.802Z,993.88
2017-03-03T01:16:19.823Z,993.88
2017-03-03T01:17:19.855Z,993.88
2017-03-03T01:18:19.884Z,993.85
2017-03-03T01:19:19.909Z,993.84
2017-03-03T01:20:19.933Z,993.87
2017-03-03T01:21:19.963Z,993.88
2017-03-03T01:22:19.987Z,993.89
2017-03-03T01:23:20.015Z,993.85
2017-03-03T01:24:20.040Z,993.83
2017-03-03T01:25:20.068Z,993.82
2017-03-03T01:26:20.093Z,993.78
2017-03-03T01:27:20.122Z,993.79
2017-03-03T01:28:20.151Z,993.79
2017-03-03T01:29:20.174Z,993.86
2017-03-03T01:30:20.207Z,993.83
2017-03-03T01:31:20.229Z,993.75
2017-03-03T01:32:20.258Z,993.78
2017-03-03T01:33:20.283Z,993.77
2017-03-03T01:34:20.311Z,993.8
2017-03-03T01:35:20.335Z,993.8
2017-03-03T01:36:20.365Z,993.75
2017-03-03T01:37:20.390Z,993.78
2017-03-03T01:38:20.419Z,993.74
2017-03-03T01:39:20.444Z,993.71
2017-03-03T01:40:20.472Z,993.66
2017-03-03T01:41:20.501Z,993.65
2017-03-03T01:42:20.523Z,993.67
2017-03-03T01:43:20.554Z,993.63
2017-03-03T01:44:20.579Z,993.56
2017-03-03T01:45:20.604Z,993.49
2017-03-03T01:46:20.884Z,993.5
2017-03-03T01:47:20.657Z,993.48
2017-03-03T01:48:20.687Z,993.53
2017-03-03T01:49:20.715Z,993.57
2017-03-03T01:50:20.740Z,993.53
2017-03-03T01:51:21.019Z,993.51
2017-03-03T01:52:20.793Z,993.51
2017-03-03T01:53:20.821Z,993.46
2017-03-03T01:54:20.847Z,993.43
2017-03-03T01:55:20.875Z,993.36
2017-03-03T01:56:21.151Z,993.35
2017-03-03T01:57:20.928Z,993.36
2017-03-03T01:58:20.949Z,993.39
2017-03-03T01:59:20.982Z,993.39
2017-03-03T02:00:21.004Z,993.4
2017-03-03T02:01:21.280Z,993.33
2017-03-03T02:02:21.060Z,993.33
2017-03-03T02:03:21.087Z,993.31
2017-03-03T02:04:21.114Z,993.32
2017-03-03T02:05:21.142Z,993.28
2017-03-03T02:06:21.415Z,993.27
2017-03-03T02:07:21.196Z,993.26
2017-03-03T02:08:21.216Z,993.17
2017-03-03T02:09:21.249Z,993.18
2017-03-03T02:10:21.270Z,993.14
2017-03-03T02:11:21.303Z,993.14
2017-03-03T02:12:21.324Z,993.15
2017-03-03T02:13:21.357Z,993.18
2017-03-03T02:14:21.381Z,993.09
2017-03-03T02:15:21.410Z,993.04
2017-03-03T02:16:21.437Z,993
2017-03-03T02:17:21.464Z,993
2017-03-03T02:18:21.489Z,992.98
2017-03-03T02:19:21.516Z,992.96
2017-03-03T02:20:21.542Z,992.92
2017-03-03T02:21:21.570Z,992.92
2017-03-03T02:22:21.594Z,992.83
2017-03-03T02:23:21.624Z,992.81
2017-03-03T02:24:21.646Z,992.76
2017-03-03T02:25:21.673Z,992.73
2017-03-03T02:26:21.704Z,992.68
2017-03-03T02:27:21.731Z,992.63
2017-03-03T02:28:21.758Z,992.59
2017-03-03T02:29:21.777Z,992.56
2017-03-03T02:30:21.810Z,992.56
2017-03-03T02:31:21.838Z,992.58
2017-03-03T02:32:21.863Z,992.52
2017-03-03T02:33:21.884Z,992.53
2017-03-03T02:34:21.916Z,992.5
2017-03-03T02:35:21.940Z,992.46
2017-03-03T02:36:21.969Z,992.4
2017-03-03T02:37:21.995Z,992.43
2017-03-03T02:38:22.023Z,992.37
2017-03-03T02:39:22.048Z,992.34
2017-03-03T02:40:22.077Z,992.32
2017-03-03T02:41:22.101Z,992.26
2017-03-03T02:42:22.133Z,992.25
2017-03-03T02:43:22.154Z,992.24
2017-03-03T02:44:22.179Z,992.2
2017-03-03T02:45:22.204Z,992.18
2017-03-03T02:46:22.236Z,992.12
2017-03-03T02:47:22.262Z,992.14
2017-03-03T02:48:22.290Z,992.11
2017-03-03T02:49:22.316Z,992.12
2017-03-03T02:50:22.346Z,992.07
2017-03-03T02:51:22.369Z,992.09
2017-03-03T02:52:22.397Z,992.04
2017-03-03T02:53:22.422Z,992.02
2017-03-03T02:54:22.451Z,992.04
2017-03-03T02:55:22.476Z,992.07
2017-03-03T02:56:22.504Z,992.13
2017-03-03T02:57:22.532Z,992.14
2017-03-03T02:58:22.552Z,992.11
2017-03-03T02:59:22.581Z,992.1
2017-03-03T03:00:22.607Z,992.07
2017-03-03T03:01:22.636Z,992.12
2017-03-03T03:02:22.661Z,992.14
2017-03-03T03:03:22.684Z,992.14
2017-03-03T03:04:22.714Z,992.18
2017-03-03T03:05:22.747Z,992.12
2017-03-03T03:06:22.762Z,992.17
2017-03-03T03:07:22.795Z,992.21
2017-03-03T03:08:22.821Z,992.26
2017-03-03T03:09:22.849Z,992.24
2017-03-03T03:10:22.875Z,992.24
2017-03-03T03:11:22.904Z,992.23
2017-03-03T03:12:22.929Z,992.23
2017-03-03T03:13:22.952Z,992.3
2017-03-03T03:14:22.982Z,992.29
2017-03-03T03:15:23.006Z,992.34
2017-03-03T03:16:23.035Z,992.28
2017-03-03T03:17:23.060Z,992.27
2017-03-03T03:18:23.088Z,992.27
2017-03-03T03:19:23.113Z,992.18
2017-03-03T03:20:23.142Z,992.15
2017-03-03T03:21:23.167Z,992.08
2017-03-03T03:22:23.196Z,992.07
2017-03-03T03:23:23.220Z,992.01
2017-03-03T03:24:23.261Z,992
2017-03-03T03:25:23.273Z,991.94
2017-03-03T03:26:23.288Z,991.95
2017-03-03T03:27:23.327Z,991.92
2017-03-03T03:28:23.354Z,991.87
2017-03-03T03:29:23.380Z,991.81
2017-03-03T03:30:23.406Z,991.72
2017-03-03T03:31:23.435Z,991.66
2017-03-03T03:32:23.454Z,991.63
2017-03-03T03:33:23.488Z,991.63
2017-03-03T03:34:23.512Z,991.65
2017-03-03T03:35:23.537Z,991.6
2017-03-03T03:36:23.566Z,991.64
2017-03-03T03:37:23.591Z,991.61
2017-03-03T03:38:23.619Z,991.7
2017-03-03T03:39:23.644Z,991.77
2017-03-03T03:40:23.673Z,991.76
2017-03-03T03:41:23.698Z,991.75
2017-03-03T03:42:23.970Z,991.73
2017-03-03T03:43:23.747Z,991.7
2017-03-03T03:44:23.779Z,991.67
2017-03-03T03:45:23.804Z,991.62
2017-03-03T03:46:23.829Z,991.61
2017-03-03T03:47:24.105Z,991.59
2017-03-03T03:48:23.878Z,991.64
2017-03-03T03:49:23.912Z,991.57
2017-03-03T03:50:23.936Z,991.63
2017-03-03T03:51:23.963Z,991.61
2017-03-03T03:52:24.241Z,991.55
2017-03-03T03:53:24.015Z,991.54
2017-03-03T03:54:24.047Z,991.46
2017-03-03T03:55:24.067Z,991.45
2017-03-03T03:56:24.096Z,991.41
2017-03-03T03:57:24.372Z,991.43
2017-03-03T03:58:24.154Z,991.44
2017-03-03T03:59:24.175Z,991.4
2017-03-03T04:00:24.203Z,991.37
2017-03-03T04:01:24.224Z,991.34
2017-03-03T04:02:24.508Z,991.34
2017-03-03T04:03:24.281Z,991.29
2017-03-03T04:04:24.306Z,991.25
2017-03-03T04:05:24.335Z,991.21
2017-03-03T04:06:24.359Z,991.28
2017-03-03T04:07:24.389Z,991.17
2017-03-03T04:08:24.416Z,991.19
2017-03-03T04:09:24.438Z,991.13
2017-03-03T04:10:24.467Z,991.18
2017-03-03T04:11:24.496Z,991.22
2017-03-03T04:12:24.520Z,991.19
2017-03-03T04:13:24.543Z,991.19
2017-03-03T04:14:24.574Z,991.17
2017-03-03T04:15:24.598Z,991.17
2017-03-03T04:16:24.627Z,991.23
2017-03-03T04:17:24.652Z,991.21
2017-03-03T04:18:24.681Z,991.21
2017-03-03T04:19:24.706Z,991.21
2017-03-03T04:20:24.726Z,991.19
2017-03-03T04:21:24.759Z,991.08
2017-03-03T04:22:24.784Z,991.02
2017-03-03T04:23:24.812Z,991.04
2017-03-03T04:24:24.838Z,991
2017-03-03T04:25:24.862Z,991.01
2017-03-03T04:26:24.891Z,991.06
2017-03-03T04:27:24.919Z,991.07
2017-03-03T04:28:24.944Z,991.06
2017-03-03T04:29:24.971Z,991.01
2017-03-03T04:30:24.997Z,990.96
2017-03-03T04:31:25.021Z,991.02
2017-03-03T04:32:25.052Z,991.05
2017-03-03T04:33:25.076Z,991.09
2017-03-03T04:34:25.104Z,991.09
2017-03-03T04:35:25.129Z,991.1
2017-03-03T04:36:25.154Z,991.09
2017-03-03T04:37:25.183Z,991.03
2017-03-03T04:38:25.207Z,990.98
2017-03-03T04:39:25.238Z,990.98
2017-03-03T04:40:25.261Z,990.92
2017-03-03T04:41:25.286Z,990.93
2017-03-03T04:42:25.310Z,990.92
2017-03-03T04:43:25.343Z,990.93
2017-03-03T04:44:25.367Z,990.86
2017-03-03T04:45:25.388Z,990.87
2017-03-03T04:46:25.417Z,990.8
2017-03-03T04:47:25.446Z,990.8
2017-03-03T04:48:26.021Z,990.76
2017-03-03T04:49:25.499Z,990.76
2017-03-03T04:50:25.529Z,990.72
2017-03-03T04:51:25.553Z,990.71
2017-03-03T04:52:25.578Z,990.72
2017-03-03T04:53:25.858Z,990.71
2017-03-03T04:54:25.631Z,990.65
2017-03-03T04:55:25.660Z,990.64
2017-03-03T04:56:25.684Z,990.59
2017-03-03T04:57:25.713Z,990.57
2017-03-03T04:58:25.989Z,990.51
2017-03-03T04:59:25.759Z,990.53
2017-03-03T05:00:25.792Z,990.54
2017-03-03T05:01:25.814Z,990.55
2017-03-03T05:02:25.845Z,990.52
2017-03-03T05:03:26.122Z,990.52
2017-03-03T05:04:25.894Z,990.51
2017-03-03T05:05:25.924Z,990.53
2017-03-03T05:06:25.947Z,990.53
2017-03-03T05:07:25.972Z,990.52
2017-03-03T05:08:26.254Z,990.56
2017-03-03T05:09:26.030Z,990.53
2017-03-03T05:10:26.055Z,990.56
2017-03-03T05:11:26.080Z,990.55
2017-03-03T05:12:26.109Z,990.52
2017-03-03T05:13:26.385Z,990.53
2017-03-03T05:14:26.162Z,990.47
2017-03-03T05:15:26.187Z,990.4
2017-03-03T05:16:26.211Z,990.39
2017-03-03T05:17:26.240Z,990.32
2017-03-03T05:18:26.516Z,990.37
2017-03-03T05:19:26.294Z,990.41
2017-03-03T05:20:26.318Z,990.43
2017-03-03T05:21:26.343Z,990.41
2017-03-03T05:22:26.371Z,990.38
2017-03-03T05:23:26.397Z,990.4
2017-03-03T05:24:26.425Z,990.39
2017-03-03T05:25:26.450Z,990.39
2017-03-03T05:26:26.479Z,990.36
2017-03-03T05:27:26.502Z,990.36
2017-03-03T05:28:26.529Z,990.34
2017-03-03T05:29:26.558Z,990.33
2017-03-03T05:30:26.581Z,990.29
2017-03-03T05:31:26.611Z,990.29
2017-03-03T05:32:26.636Z,990.26
2017-03-03T05:33:26.661Z,990.18
2017-03-03T05:34:26.689Z,990.15
2017-03-03T05:35:26.718Z,990.13
2017-03-03T05:36:26.738Z,990.04
2017-03-03T05:37:26.767Z,990.02
2017-03-03T05:38:26.795Z,990.01
2017-03-03T05:39:26.821Z,990.05
2017-03-03T05:40:26.849Z,990.03
2017-03-03T05:41:26.874Z,990.08
2017-03-03T05:42:26.901Z,990.1
2017-03-03T05:43:26.932Z,990.08
2017-03-03T05:44:26.951Z,990.05
2017-03-03T05:45:26.981Z,990.05
2017-03-03T05:46:27.006Z,990.07
2017-03-03T05:47:27.031Z,990.07
2017-03-03T05:48:27.060Z,990.05
2017-03-03T05:49:27.084Z,990.01
2017-03-03T05:50:27.105Z,989.97
2017-03-03T05:51:27.138Z,989.98
2017-03-03T05:52:27.163Z,989.92
2017-03-03T05:53:27.190Z,989.91
2017-03-03T05:54:27.216Z,989.92
2017-03-03T05:55:27.240Z,989.91
2017-03-03T05:56:27.271Z,989.96
2017-03-03T05:57:27.298Z,989.92
2017-03-03T05:58:27.323Z,989.91
2017-03-03T05:59:27.352Z,989.89
2017-03-03T06:00:27.376Z,989.92
2017-03-03T06:01:27.403Z,989.92
2017-03-03T06:02:27.430Z,989.88
2017-03-03T06:03:27.455Z,989.84
2017-03-03T06:04:27.483Z,989.84
2017-03-03T06:05:27.509Z,989.81
2017-03-03T06:06:27.533Z,989.8
2017-03-03T06:07:27.561Z,989.77
2017-03-03T06:08:27.586Z,989.72
2017-03-03T06:09:27.615Z,989.66
2017-03-03T06:10:27.640Z,989.7
2017-03-03T06:11:27.665Z,989.77
2017-03-03T06:12:27.697Z,989.74
2017-03-03T06:13:27.723Z,989.78
2017-03-03T06:14:27.747Z,989.77
2017-03-03T06:15:27.776Z,989.77
2017-03-03T06:16:27.800Z,989.76
2017-03-03T06:17:27.830Z,989.74
2017-03-03T06:18:27.871Z,989.73
2017-03-03T06:19:27.878Z,989.72
2017-03-03T06:20:27.907Z,989.71
2017-03-03T06:21:27.932Z,989.67
2017-03-03T06:22:27.961Z,989.67
2017-03-03T06:23:27.986Z,989.68
2017-03-03T06:24:28.266Z,989.63
2017-03-03T06:25:28.040Z,989.67
2017-03-03T06:26:28.068Z,989.65
2017-03-03T06:27:28.093Z,989.62
2017-03-03T06:28:28.118Z,989.62
2017-03-03T06:29:28.398Z,989.63
2017-03-03T06:30:28.166Z,989.61
2017-03-03T06:31:28.199Z,989.59
2017-03-03T06:32:28.224Z,989.58
2017-03-03T06:33:28.253Z,989.61
2017-03-03T06:34:28.529Z,989.62
2017-03-03T06:35:28.307Z,989.64
2017-03-03T06:36:28.330Z,989.64
2017-03-03T06:37:28.360Z,989.6
2017-03-03T06:38:28.385Z,989.58
2017-03-03T06:39:28.413Z,989.56
2017-03-03T06:40:28.440Z,989.59
2017-03-03T06:41:28.462Z,989.53
2017-03-03T06:42:28.492Z,989.51
2017-03-03T06:43:28.512Z,989.52
2017-03-03T06:44:28.545Z,989.48
2017-03-03T06:45:28.570Z,989.48
2017-03-03T06:46:28.598Z,989.42
2017-03-03T06:47:28.623Z,989.42
2017-03-03T06:48:28.652Z,989.39
2017-03-03T06:49:28.677Z,989.38
2017-03-03T06:50:28.706Z,989.37
2017-03-03T06:51:28.729Z,989.31
2017-03-03T06:52:28.758Z,989.25
2017-03-03T06:53:28.783Z,989.23
2017-03-03T06:54:28.811Z,989.22
2017-03-03T06:55:28.836Z,989.19
2017-03-03T06:56:28.865Z,989.17
2017-03-03T06:57:28.894Z,989.16
2017-03-03T06:58:28.919Z,989.18
2017-03-03T06:59:28.940Z,989.16
2017-03-03T07:00:28.969Z,989.17
2017-03-03T07:01:28.999Z,989.15
2017-03-03T07:02:29.027Z,989.13
2017-03-03T07:03:29.051Z,989.14
2017-03-03T07:04:29.079Z,989.16
2017-03-03T07:05:29.104Z,989.17
2017-03-03T07:06:29.134Z,989.17
2017-03-03T07:07:29.157Z,989.17
2017-03-03T07:08:29.186Z,989.1
2017-03-03T07:09:29.211Z,989.08
2017-03-03T07:10:29.240Z,989.07
2017-03-03T07:11:29.262Z,989.03
2017-03-03T07:12:29.294Z,989.07
2017-03-03T07:13:29.318Z,989.03
2017-03-03T07:14:29.342Z,988.97
2017-03-03T07:15:29.372Z,988.96
2017-03-03T07:16:29.401Z,988.99
2017-03-03T07:17:29.424Z,988.97
2017-03-03T07:18:29.454Z,988.97
2017-03-03T07:19:29.479Z,988.96
2017-03-03T07:20:29.520Z,988.89
2017-03-03T07:21:29.536Z,988.9
2017-03-03T07:22:29.562Z,988.86
2017-03-03T07:23:29.590Z,988.87
2017-03-03T07:24:29.606Z,988.82
2017-03-03T07:25:29.641Z,988.83
2017-03-03T07:26:29.664Z,988.79
2017-03-03T07:27:29.692Z,988.78
2017-03-03T07:28:29.722Z,988.72
2017-03-03T07:29:29.751Z,988.71
2017-03-03T07:30:29.771Z,988.64
2017-03-03T07:31:29.803Z,988.64
2017-03-03T07:32:29.828Z,988.61
2017-03-03T07:33:29.853Z,988.6
2017-03-03T07:34:29.887Z,988.59
2017-03-03T07:35:29.911Z,988.64
2017-03-03T07:36:29.940Z,988.65
2017-03-03T07:37:29.964Z,988.61
2017-03-03T07:38:29.993Z,988.63
2017-03-03T07:39:30.022Z,988.61
2017-03-03T07:40:30.047Z,988.62
2017-03-03T07:41:30.076Z,988.59
2017-03-03T07:42:30.100Z,988.56
2017-03-03T07:43:30.125Z,988.55
2017-03-03T07:44:30.152Z,988.52
2017-03-03T07:45:30.183Z,988.47
2017-03-03T07:46:30.207Z,988.47
2017-03-03T07:47:30.235Z,988.56
2017-03-03T07:48:30.260Z,988.5
2017-03-03T07:49:30.289Z,988.52
2017-03-03T07:50:30.314Z,988.49
2017-03-03T07:51:30.343Z,988.49
2017-03-03T07:52:30.371Z,988.46
2017-03-03T07:53:30.395Z,988.45
2017-03-03T07:54:30.441Z,988.47
2017-03-03T07:55:30.453Z,988.44
2017-03-03T07:56:30.478Z,988.4
2017-03-03T07:57:30.507Z,988.42
2017-03-03T07:58:30.531Z,988.42
2017-03-03T07:59:30.561Z,988.43
2017-03-03T08:00:30.590Z,988.46
2017-03-03T08:01:30.614Z,988.43
2017-03-03T08:02:30.643Z,988.41
2017-03-03T08:03:30.668Z,988.41
2017-03-03T08:04:30.697Z,988.37
2017-03-03T08:05:30.722Z,988.31
2017-03-03T08:06:30.750Z,988.35
2017-03-03T08:07:30.779Z,988.27
2017-03-03T08:08:30.803Z,988.26
2017-03-03T08:09:30.828Z,988.24
2017-03-03T08:10:30.857Z,988.24
2017-03-03T08:11:30.882Z,988.24
2017-03-03T08:12:30.915Z,988.24
2017-03-03T08:13:30.939Z,988.24
2017-03-03T08:14:30.967Z,988.21
2017-03-03T08:15:30.993Z,988.19
2017-03-03T08:16:31.021Z,988.15
2017-03-03T08:17:31.050Z,988.11
2017-03-03T08:18:31.073Z,988.08
2017-03-03T08:19:31.104Z,988.09
2017-03-03T08:20:31.127Z,988.12
2017-03-03T08:21:31.153Z,988.17
2017-03-03T08:22:31.186Z,988.16
2017-03-03T08:23:31.211Z,988.15
2017-03-03T08:24:31.238Z,988.17
2017-03-03T08:25:31.263Z,988.1
2017-03-03T08:26:31.288Z,988.11
2017-03-03T08:27:31.319Z,988.06
2017-03-03T08:28:31.347Z,988.03
2017-03-03T08:29:31.375Z,988.02
2017-03-03T08:30:31.404Z,988.04
2017-03-03T08:31:31.432Z,988.09
2017-03-03T08:32:31.457Z,988.1
2017-03-03T08:33:31.482Z,988.14
2017-03-03T08:34:31.510Z,988.13
2017-03-03T08:35:31.539Z,988.07
2017-03-03T08:36:31.564Z,988.1
2017-03-03T08:37:31.593Z,988.04
2017-03-03T08:38:31.618Z,988.01
2017-03-03T08:39:31.647Z,988
2017-03-03T08:40:31.682Z,988.05
2017-03-03T08:41:31.700Z,988.01
2017-03-03T08:42:31.729Z,988.03
2017-03-03T08:43:31.757Z,988.07
2017-03-03T08:44:31.782Z,988.07
2017-03-03T08:45:31.813Z,988.07
2017-03-03T08:46:31.835Z,988.02
2017-03-03T08:47:31.863Z,987.99
2017-03-03T08:48:31.896Z,987.98
2017-03-03T08:49:31.918Z,987.96
2017-03-03T08:50:31.947Z,987.96
2017-03-03T08:51:31.975Z,987.98
2017-03-03T08:52:32.000Z,987.97
2017-03-03T08:53:32.032Z,987.96
2017-03-03T08:54:32.053Z,987.94
2017-03-03T08:55:32.352Z,987.97
2017-03-03T08:56:32.111Z,987.95
2017-03-03T08:57:32.132Z,987.92
2017-03-03T08:58:32.164Z,987.95
2017-03-03T08:59:32.192Z,987.91
2017-03-03T09:00:32.466Z,987.85
2017-03-03T09:01:32.247Z,987.83
2017-03-03T09:02:32.271Z,987.79
2017-03-03T09:03:32.300Z,987.82
2017-03-03T09:04:32.329Z,987.76
2017-03-03T09:05:32.618Z,987.78
2017-03-03T09:06:32.383Z,987.78
2017-03-03T09:07:32.407Z,987.8
2017-03-03T09:08:32.442Z,987.75
2017-03-03T09:09:32.465Z,987.75
2017-03-03T09:10:32.494Z,987.74
2017-03-03T09:11:32.518Z,987.68
2017-03-03T09:12:32.547Z,987.67
2017-03-03T09:13:32.576Z,987.66
2017-03-03T09:14:32.600Z,987.64
2017-03-03T09:15:32.628Z,987.65
2017-03-03T09:16:32.658Z,987.61
2017-03-03T09:17:32.683Z,987.6
2017-03-03T09:18:32.712Z,987.55
2017-03-03T09:19:32.739Z,987.48
2017-03-03T09:20:32.764Z,987.43
2017-03-03T09:21:32.794Z,987.41
2017-03-03T09:22:32.822Z,987.4
2017-03-03T09:23:32.848Z,987.4
2017-03-03T09:24:32.880Z,987.43
2017-03-03T09:25:32.900Z,987.42
2017-03-03T09:26:32.930Z,987.41
2017-03-03T09:27:32.952Z,987.33
2017-03-03T09:28:32.987Z,987.33
2017-03-03T09:29:33.012Z,987.28
2017-03-03T09:30:33.039Z,987.24
2017-03-03T09:31:33.067Z,987.15
2017-03-03T09:32:33.094Z,987.11
2017-03-03T09:33:33.123Z,987.06
2017-03-03T09:34:33.151Z,987
2017-03-03T09:35:33.180Z,986.98
2017-03-03T09:36:33.205Z,986.96
2017-03-03T09:37:33.230Z,986.97
2017-03-03T09:38:33.258Z,986.94
2017-03-03T09:39:33.288Z,986.95
2017-03-03T09:40:33.317Z,986.96
2017-03-03T09:41:33.341Z,986.93
2017-03-03T09:42:33.370Z,986.96
2017-03-03T09:43:33.398Z,986.91
2017-03-03T09:44:33.421Z,986.94
2017-03-03T09:45:33.454Z,986.96
2017-03-03T09:46:33.479Z,986.96
2017-03-03T09:47:33.505Z,986.99
2017-03-03T09:48:33.533Z,986.98
2017-03-03T09:49:33.557Z,986.98
2017-03-03T09:50:33.592Z,986.96
2017-03-03T09:51:33.615Z,986.94
2017-03-03T09:52:33.647Z,986.93
2017-03-03T09:53:33.674Z,986.91
2017-03-03T09:54:33.703Z,986.95
2017-03-03T09:55:33.729Z,986.99
2017-03-03T09:56:33.756Z,986.96
2017-03-03T09:57:33.785Z,986.96
2017-03-03T09:58:33.827Z,986.91
2017-03-03T09:59:33.838Z,986.93
2017-03-03T10:00:33.868Z,986.93
2017-03-03T10:01:33.891Z,986.96
2017-03-03T10:02:33.921Z,986.95
2017-03-03T10:03:33.949Z,986.93
2017-03-03T10:04:33.978Z,986.92
2017-03-03T10:05:34.005Z,986.85
2017-03-03T10:06:34.032Z,986.86
2017-03-03T10:07:34.060Z,986.85
2017-03-03T10:08:34.083Z,986.88
2017-03-03T10:09:34.114Z,986.87
2017-03-03T10:10:34.142Z,986.86
2017-03-03T10:11:34.171Z,986.84
2017-03-03T10:12:34.196Z,986.87
2017-03-03T10:13:34.225Z,986.81
2017-03-03T10:14:34.253Z,986.86
2017-03-03T10:15:34.283Z,986.87
2017-03-03T10:16:34.562Z,986.89
2017-03-03T10:17:34.331Z,986.91
2017-03-03T10:18:34.365Z,986.9
2017-03-03T10:19:34.394Z,986.84
2017-03-03T10:20:34.418Z,986.78
2017-03-03T10:21:34.447Z,986.77
2017-03-03T10:22:34.476Z,986.78
2017-03-03T10:23:34.504Z,986.77
2017-03-03T10:24:34.531Z,986.73
2017-03-03T10:25:34.558Z,986.74
2017-03-03T10:26:34.587Z,986.7
2017-03-03T10:27:34.620Z,986.62
2017-03-03T10:28:34.640Z,986.65
2017-03-03T10:29:34.669Z,986.64
2017-03-03T10:30:34.698Z,986.64
2017-03-03T10:31:34.726Z,986.65
2017-03-03T10:32:34.756Z,986.64
2017-03-03T10:33:34.779Z,986.63
2017-03-03T10:34:34.810Z,986.61
2017-03-03T10:35:34.838Z,986.59
2017-03-03T10:36:34.862Z,986.59
2017-03-03T10:37:34.896Z,986.59
2017-03-03T10:38:34.920Z,986.57
2017-03-03T10:39:34.949Z,986.62
2017-03-03T10:40:34.978Z,986.64
2017-03-03T10:41:35.001Z,986.64
2017-03-03T10:42:35.035Z,986.63
2017-03-03T10:43:35.060Z,986.63
2017-03-03T10:44:35.089Z,986.67
2017-03-03T10:45:35.117Z,986.64
2017-03-03T10:46:35.146Z,986.57
2017-03-03T10:47:35.171Z,986.57
2017-03-03T10:48:35.200Z,986.58
2017-03-03T10:49:35.232Z,986.56
2017-03-03T10:50:35.257Z,986.55
2017-03-03T10:51:35.286Z,986.55
2017-03-03T10:52:35.310Z,986.46
2017-03-03T10:53:35.340Z,986.49
2017-03-03T10:54:35.368Z,986.41
2017-03-03T10:55:35.396Z,986.43
2017-03-03T10:56:35.425Z,986.43
2017-03-03T10:57:35.454Z,986.44
2017-03-03T10:58:35.483Z,986.42
2017-03-03T10:59:35.511Z,986.41
2017-03-03T11:00:35.536Z,986.39
2017-03-03T11:01:35.566Z,986.29
2017-03-03T11:02:35.594Z,986.33
2017-03-03T11:03:35.624Z,986.33
2017-03-03T11:04:35.647Z,986.32
2017-03-03T11:05:35.677Z,986.39
2017-03-03T11:06:35.710Z,986.36
2017-03-03T11:07:35.734Z,986.34
2017-03-03T11:08:35.758Z,986.32
2017-03-03T11:09:35.792Z,986.28
2017-03-03T11:10:35.820Z,986.28
2017-03-03T11:11:35.845Z,986.3
2017-03-03T11:12:35.872Z,986.31
2017-03-03T11:13:35.901Z,986.29
2017-03-03T11:14:35.930Z,986.32
2017-03-03T11:15:35.957Z,986.36
2017-03-03T11:16:35.984Z,986.37
2017-03-03T11:17:36.013Z,986.34
2017-03-03T11:18:36.044Z,986.29
2017-03-03T11:19:36.071Z,986.18
2017-03-03T11:20:36.099Z,986.17
2017-03-03T11:21:36.123Z,986.19
2017-03-03T11:22:36.157Z,986.15
2017-03-03T11:23:36.182Z,986.1
2017-03-03T11:24:36.211Z,986.13
2017-03-03T11:25:36.238Z,986.09
2017-03-03T11:26:36.268Z,986.04
2017-03-03T11:27:36.298Z,985.97
2017-03-03T11:28:36.326Z,985.9
2017-03-03T11:29:36.349Z,985.91
2017-03-03T11:30:36.377Z,985.9
2017-03-03T11:31:36.408Z,985.92
2017-03-03T11:32:36.437Z,985.88
2017-03-03T11:33:36.464Z,985.77
2017-03-03T11:34:36.490Z,985.73
2017-03-03T11:35:36.519Z,985.73
2017-03-03T11:36:36.548Z,985.73
2017-03-03T11:37:36.577Z,985.66
2017-03-03T11:38:36.601Z,985.61
2017-03-03T11:39:36.635Z,985.57
2017-03-03T11:40:36.662Z,985.5
2017-03-03T11:41:36.684Z,985.48
2017-03-03T11:42:36.716Z,985.48
2017-03-03T11:43:36.745Z,985.46
2017-03-03T11:44:36.773Z,985.52
2017-03-03T11:45:36.803Z,985.56
2017-03-03T11:46:36.831Z,985.59
2017-03-03T11:47:36.859Z,985.64
2017-03-03T11:48:36.886Z,985.61
2017-03-03T11:49:36.913Z,985.64
2017-03-03T11:50:36.943Z,985.54
2017-03-03T11:51:36.971Z,985.52
2017-03-03T11:52:37.000Z,985.48
2017-03-03T11:53:37.027Z,985.48
2017-03-03T11:54:37.057Z,985.44
2017-03-03T11:55:37.081Z,985.37
2017-03-03T11:56:37.110Z,985.4
2017-03-03T11:57:37.140Z,985.31
2017-03-03T11:58:37.168Z,985.25
2017-03-03T11:59:37.198Z,985.33
2017-03-03T12:00:37.225Z,985.41
2017-03-03T12:01:37.251Z,985.26
2017-03-03T12:02:37.283Z,985.23
2017-03-03T12:03:37.308Z,985.19
2017-03-03T12:04:37.335Z,985.21
2017-03-03T12:05:37.366Z,985.27
2017-03-03T12:06:37.392Z,985.2
2017-03-03T12:07:37.422Z,985.36
2017-03-03T12:08:37.451Z,985.34
2017-03-03T12:09:37.480Z,985.35
2017-03-03T12:10:37.505Z,985.12
2017-03-03T12:11:37.538Z,985.12
2017-03-03T12:12:37.567Z,985.06
2017-03-03T12:13:37.597Z,984.98
2017-03-03T12:14:37.624Z,984.96
2017-03-03T12:15:37.644Z,984.95
2017-03-03T12:16:37.681Z,984.9
2017-03-03T12:17:37.710Z,984.93
2017-03-03T12:18:37.739Z,984.76
2017-03-03T12:19:37.767Z,984.71
2017-03-03T12:20:37.796Z,984.74
2017-03-03T12:21:37.825Z,984.72
2017-03-03T12:22:38.101Z,984.75
2017-03-03T12:23:37.881Z,984.72
2017-03-03T12:24:37.911Z,984.65
2017-03-03T12:25:37.940Z,984.65
2017-03-03T12:26:37.969Z,984.62
2017-03-03T12:27:38.249Z,984.58
2017-03-03T12:28:38.018Z,984.59
2017-03-03T12:29:38.049Z,984.6
2017-03-03T12:30:38.086Z,984.59